createdAt,value
2018-05-27T00:00:22.776Z,0.00
2018-05-27T00:01:22.780Z,0.00
2018-05-27T00:02:22.783Z,0.00
2018-05-27T00:03:22.785Z,0.00
2018-05-27T00:04:22.789Z,0.00
2018-05-27T00:05:22.790Z,0.00
2018-05-27T00:06:22.793Z,0.00
2018-05-27T00:07:22.797Z,0.00
2018-05-27T00:08:22.801Z,0.00
2018-05-27T00:09:22.803Z,0.00
2018-05-27T00:10:22.806Z,0.00
2018-05-27T00:11:22.810Z,0.00
2018-05-27T00:12:22.813Z,0.00
2018-05-27T00:13:22.818Z,0.00
2018-05-27T00:14:22.823Z,0.00
2018-05-27T00:15:22.825Z,0.00
2018-05-27T00:16:22.825Z,0.00
2018-05-27T00:17:22.828Z,0.00
2018-05-27T00:18:22.829Z,0.00
2018-05-27T00:19:22.837Z,0.00
2018-05-27T00:20:22.835Z,0.00
2018-05-27T00:21:22.841Z,0.00
2018-05-27T00:22:22.842Z,0.00
2018-05-27T00:23:22.848Z,0.00
2018-05-27T00:24:22.850Z,0.00
2018-05-27T00:25:22.851Z,0.00
2018-05-27T00:26:22.854Z,0.00
2018-05-27T00:27:22.856Z,0.00
2018-05-27T00:28:22.861Z,0.00
2018-05-27T00:29:22.864Z,0.00
2018-05-27T00:30:22.867Z,0.00
2018-05-27T00:31:22.869Z,0.00
2018-05-27T00:32:22.873Z,0.00
2018-05-27T00:33:22.876Z,0.00
2018-05-27T00:34:22.878Z,0.00
2018-05-27T00:36:22.883Z,0.00
2018-05-27T00:37:22.888Z,0.00
2018-05-27T00:38:22.889Z,0.00
2018-05-27T00:39:22.932Z,0.00
2018-05-27T00:40:22.895Z,0.00
2018-05-27T00:41:22.898Z,0.00
2018-05-27T00:42:22.900Z,0.00
2018-05-27T00:43:22.904Z,0.00
2018-05-27T00:44:22.907Z,0.00
2018-05-27T00:45:22.909Z,0.00
2018-05-27T00:46:22.913Z,0.00
2018-05-27T00:47:22.914Z,0.00
2018-05-27T00:48:22.917Z,0.00
2018-05-27T00:49:22.920Z,0.00
2018-05-27T00:50:22.923Z,0.00
2018-05-27T00:51:22.925Z,0.00
2018-05-27T00:52:22.928Z,0.00
2018-05-27T00:53:22.931Z,0.00
2018-05-27T00:54:22.934Z,0.00
2018-05-27T00:55:22.937Z,0.00
2018-05-27T00:56:22.940Z,0.00
2018-05-27T00:57:22.943Z,0.00
2018-05-27T00:58:22.945Z,0.00
2018-05-27T00:59:22.946Z,0.00
2018-05-27T01:00:22.951Z,0.00
2018-05-27T01:01:22.953Z,0.00
2018-05-27T01:02:22.956Z,0.00
2018-05-27T01:03:22.957Z,0.00
2018-05-27T01:04:22.961Z,0.00
2018-05-27T01:05:22.964Z,0.00
2018-05-27T01:06:23.007Z,0.00
2018-05-27T01:07:22.968Z,0.00
2018-05-27T01:08:22.971Z,0.00
2018-05-27T01:09:22.973Z,0.00
2018-05-27T01:10:22.975Z,0.00
2018-05-27T01:11:22.978Z,0.00
2018-05-27T01:12:22.982Z,0.00
2018-05-27T01:13:22.983Z,0.00
2018-05-27T01:14:22.986Z,0.00
2018-05-27T01:15:22.988Z,0.00
2018-05-27T01:16:22.990Z,0.00
2018-05-27T01:17:22.994Z,0.00
2018-05-27T01:18:22.995Z,0.00
2018-05-27T01:19:22.997Z,0.00
2018-05-27T01:20:23.002Z,0.00
2018-05-27T01:21:23.004Z,0.00
2018-05-27T01:22:23.004Z,0.00
2018-05-27T01:23:23.009Z,0.00
2018-05-27T01:24:23.009Z,0.00
2018-05-27T01:25:23.012Z,0.00
2018-05-27T01:26:23.014Z,0.00
2018-05-27T01:27:23.017Z,0.00
2018-05-27T01:28:23.020Z,0.00
2018-05-27T01:29:23.022Z,0.00
2018-05-27T01:30:23.023Z,0.00
2018-05-27T01:31:23.027Z,0.00
2018-05-27T01:32:23.029Z,0.00
2018-05-27T01:33:23.032Z,0.00
2018-05-27T01:34:23.033Z,0.00
2018-05-27T01:35:23.037Z,0.00
2018-05-27T01:36:23.038Z,0.00
2018-05-27T01:37:23.041Z,0.00
2018-05-27T01:38:23.042Z,0.00
2018-05-27T01:39:23.050Z,0.00
2018-05-27T01:40:23.048Z,0.00
2018-05-27T01:41:23.051Z,0.00
2018-05-27T01:42:23.053Z,0.00
2018-05-27T01:43:23.056Z,0.00
2018-05-27T01:44:23.057Z,0.00
2018-05-27T01:45:23.061Z,0.00
2018-05-27T01:46:23.061Z,0.00
2018-05-27T01:47:23.066Z,0.00
2018-05-27T01:48:23.067Z,0.00
2018-05-27T01:49:23.069Z,0.00
2018-05-27T01:50:23.071Z,0.00
2018-05-27T01:51:23.076Z,0.00
2018-05-27T01:52:23.076Z,0.00
2018-05-27T01:53:23.079Z,0.00
2018-05-27T01:54:23.081Z,0.00
2018-05-27T01:55:23.083Z,0.00
2018-05-27T01:56:23.089Z,0.00
2018-05-27T01:57:23.092Z,0.00
2018-05-27T01:58:23.089Z,0.00
2018-05-27T01:59:23.092Z,0.00
2018-05-27T02:00:23.094Z,0.00
2018-05-27T02:01:23.098Z,0.00
2018-05-27T02:02:23.099Z,0.00
2018-05-27T02:03:23.100Z,0.00
2018-05-27T02:04:23.103Z,0.00
2018-05-27T02:05:23.107Z,0.00
2018-05-27T02:06:23.107Z,0.00
2018-05-27T02:07:23.111Z,0.00
2018-05-27T02:08:23.112Z,0.00
2018-05-27T02:09:23.116Z,0.00
2018-05-27T02:10:23.120Z,0.00
2018-05-27T02:11:23.120Z,0.00
2018-05-27T02:12:23.121Z,0.00
2018-05-27T02:13:23.125Z,0.00
2018-05-27T02:14:23.125Z,0.00
2018-05-27T02:15:23.128Z,0.00
2018-05-27T02:16:23.134Z,0.00
2018-05-27T02:17:23.132Z,0.00
2018-05-27T02:18:23.133Z,0.00
2018-05-27T02:19:23.137Z,0.00
2018-05-27T02:20:23.141Z,0.00
2018-05-27T02:21:23.140Z,0.00
2018-05-27T02:22:23.142Z,0.00
2018-05-27T02:23:23.145Z,0.00
2018-05-27T02:24:23.148Z,0.00
2018-05-27T02:25:23.149Z,0.00
2018-05-27T02:26:23.152Z,0.00
2018-05-27T02:27:23.153Z,0.00
2018-05-27T02:28:23.156Z,0.00
2018-05-27T02:29:23.162Z,0.00
2018-05-27T02:30:23.160Z,0.00
2018-05-27T02:31:23.164Z,0.00
2018-05-27T02:32:23.172Z,0.00
2018-05-27T02:33:23.169Z,0.00
2018-05-27T02:34:23.168Z,0.00
2018-05-27T02:35:23.169Z,0.00
2018-05-27T02:36:23.172Z,0.00
2018-05-27T02:37:23.173Z,0.00
2018-05-27T02:38:23.175Z,0.00
2018-05-27T02:39:23.177Z,0.00
2018-05-27T02:40:23.181Z,0.00
2018-05-27T02:41:23.183Z,0.00
2018-05-27T02:42:23.183Z,0.00
2018-05-27T02:43:23.185Z,0.00
2018-05-27T02:44:23.188Z,0.00
2018-05-27T02:45:23.191Z,0.00
2018-05-27T02:46:23.191Z,0.00
2018-05-27T02:47:23.193Z,0.00
2018-05-27T02:48:23.195Z,0.00
2018-05-27T02:49:23.198Z,0.00
2018-05-27T02:50:23.203Z,0.00
2018-05-27T02:51:23.202Z,0.00
2018-05-27T02:52:23.203Z,0.00
2018-05-27T02:53:23.207Z,0.00
2018-05-27T02:54:23.206Z,0.00
2018-05-27T02:55:23.207Z,0.00
2018-05-27T02:56:23.210Z,0.00
2018-05-27T02:57:23.212Z,0.00
2018-05-27T02:58:23.216Z,0.00
2018-05-27T02:59:23.217Z,0.00
2018-05-27T03:00:23.218Z,0.00
2018-05-27T03:01:23.223Z,0.00
2018-05-27T03:02:23.221Z,0.00
2018-05-27T03:03:23.223Z,0.00
2018-05-27T03:04:23.224Z,0.00
2018-05-27T03:05:23.231Z,0.00
2018-05-27T03:06:23.231Z,0.00
2018-05-27T03:07:23.229Z,0.00
2018-05-27T03:08:23.232Z,0.00
2018-05-27T03:09:23.234Z,0.00
2018-05-27T03:10:23.236Z,0.00
2018-05-27T03:11:23.238Z,0.00
2018-05-27T03:12:23.244Z,0.00
2018-05-27T03:13:23.255Z,0.00
2018-05-27T03:14:23.244Z,0.00
2018-05-27T03:15:23.244Z,0.00
2018-05-27T03:16:23.246Z,0.00
2018-05-27T03:17:23.250Z,0.00
2018-05-27T03:18:23.250Z,0.00
2018-05-27T03:19:23.252Z,0.00
2018-05-27T03:20:23.252Z,0.00
2018-05-27T03:21:23.262Z,0.00
2018-05-27T03:22:23.255Z,0.00
2018-05-27T03:23:23.257Z,0.00
2018-05-27T03:24:23.260Z,0.00
2018-05-27T03:25:23.262Z,0.00
2018-05-27T03:26:23.263Z,0.00
2018-05-27T03:27:23.266Z,0.00
2018-05-27T03:28:23.266Z,0.00
2018-05-27T03:29:23.268Z,0.00
2018-05-27T03:30:23.269Z,0.00
2018-05-27T03:31:23.273Z,0.00
2018-05-27T03:32:23.273Z,0.00
2018-05-27T03:33:23.276Z,0.00
2018-05-27T03:34:23.277Z,0.00
2018-05-27T03:35:23.281Z,0.00
2018-05-27T03:36:23.302Z,5.63
2018-05-27T03:37:23.282Z,5.63
2018-05-27T03:38:23.283Z,5.63
2018-05-27T03:39:23.286Z,5.63
2018-05-27T03:40:23.288Z,5.63
2018-05-27T03:41:23.291Z,5.63
2018-05-27T03:42:23.291Z,5.63
2018-05-27T03:43:23.291Z,5.63
2018-05-27T03:44:23.294Z,5.63
2018-05-27T03:45:23.296Z,5.63
2018-05-27T03:46:23.298Z,5.63
2018-05-27T03:47:23.299Z,5.63
2018-05-27T03:48:23.301Z,5.63
2018-05-27T03:49:23.302Z,5.63
2018-05-27T03:50:23.306Z,5.63
2018-05-27T03:51:23.305Z,5.63
2018-05-27T03:52:23.311Z,11.25
2018-05-27T03:53:23.309Z,11.25
2018-05-27T03:54:23.309Z,11.25
2018-05-27T03:55:23.312Z,11.25
2018-05-27T03:56:23.315Z,11.25
2018-05-27T03:57:23.315Z,11.25
2018-05-27T03:58:23.316Z,11.25
2018-05-27T03:59:23.318Z,11.25
2018-05-27T04:00:23.322Z,11.25
2018-05-27T04:01:23.323Z,11.25
2018-05-27T04:02:23.324Z,11.25
2018-05-27T04:03:23.325Z,16.88
2018-05-27T04:04:23.327Z,16.88
2018-05-27T04:05:23.333Z,16.88
2018-05-27T04:06:23.330Z,16.88
2018-05-27T04:07:23.333Z,16.88
2018-05-27T04:08:23.334Z,16.88
2018-05-27T04:09:23.337Z,16.88
2018-05-27T04:10:23.336Z,16.88
2018-05-27T04:11:23.338Z,16.88
2018-05-27T04:12:23.340Z,22.50
2018-05-27T04:13:23.347Z,22.50
2018-05-27T04:14:23.343Z,22.50
2018-05-27T04:15:23.344Z,22.50
2018-05-27T04:16:23.346Z,22.50
2018-05-27T04:17:23.352Z,22.50
2018-05-27T04:18:23.350Z,22.50
2018-05-27T04:19:23.352Z,28.13
2018-05-27T04:20:23.354Z,28.13
2018-05-27T04:21:23.354Z,28.13
2018-05-27T04:22:23.355Z,28.13
2018-05-27T04:23:23.359Z,28.13
2018-05-27T04:24:23.360Z,28.13
2018-05-27T04:25:23.361Z,28.13
2018-05-27T04:26:23.362Z,33.75
2018-05-27T04:27:23.363Z,33.75
2018-05-27T04:28:23.439Z,33.75
2018-05-27T04:29:23.368Z,33.75
2018-05-27T04:30:23.369Z,33.75
2018-05-27T04:31:23.370Z,33.75
2018-05-27T04:32:23.373Z,33.75
2018-05-27T04:33:23.374Z,33.75
2018-05-27T04:34:23.374Z,33.75
2018-05-27T04:35:23.376Z,39.38
2018-05-27T04:36:23.380Z,33.75
2018-05-27T04:37:23.381Z,33.75
2018-05-27T04:38:23.381Z,45.00
2018-05-27T04:39:23.382Z,39.38
2018-05-27T04:40:23.386Z,39.38
2018-05-27T04:41:23.387Z,39.38
2018-05-27T04:42:23.387Z,45.00
2018-05-27T04:43:23.391Z,45.00
2018-05-27T04:44:23.394Z,45.00
2018-05-27T04:45:23.393Z,45.00
2018-05-27T04:46:23.396Z,45.00
2018-05-27T04:47:23.398Z,45.00
2018-05-27T04:48:23.399Z,45.00
2018-05-27T04:49:23.402Z,45.00
2018-05-27T04:50:23.402Z,50.63
2018-05-27T04:51:23.404Z,50.63
2018-05-27T04:52:23.407Z,50.63
2018-05-27T04:53:23.409Z,50.63
2018-05-27T04:54:23.416Z,50.63
2018-05-27T04:55:23.415Z,50.63
2018-05-27T04:56:23.413Z,50.63
2018-05-27T04:57:23.416Z,50.63
2018-05-27T04:58:23.420Z,50.63
2018-05-27T04:59:23.427Z,56.25
2018-05-27T05:00:23.421Z,56.25
2018-05-27T05:01:23.424Z,56.25
2018-05-27T05:02:23.427Z,61.88
2018-05-27T05:03:23.428Z,61.88
2018-05-27T05:04:23.430Z,61.88
2018-05-27T05:05:23.436Z,61.88
2018-05-27T05:06:23.434Z,61.88
2018-05-27T05:07:23.441Z,61.88
2018-05-27T05:08:23.437Z,67.50
2018-05-27T05:09:23.454Z,67.50
2018-05-27T05:10:23.440Z,67.50
2018-05-27T05:11:23.443Z,73.13
2018-05-27T05:12:23.446Z,73.13
2018-05-27T05:13:23.449Z,78.75
2018-05-27T05:14:23.451Z,78.75
2018-05-27T05:15:23.452Z,84.38
2018-05-27T05:16:23.455Z,84.38
2018-05-27T05:17:23.459Z,84.38
2018-05-27T05:18:23.460Z,84.38
2018-05-27T05:19:23.463Z,84.38
2018-05-27T05:20:23.465Z,84.38
2018-05-27T05:21:23.467Z,90.00
2018-05-27T05:22:23.468Z,90.00
2018-05-27T05:23:23.470Z,90.00
2018-05-27T05:24:23.530Z,90.00
2018-05-27T05:25:23.476Z,90.00
2018-05-27T05:26:23.481Z,90.00
2018-05-27T05:27:23.482Z,90.00
2018-05-27T05:28:23.486Z,95.63
2018-05-27T05:29:23.486Z,95.63
2018-05-27T05:30:23.488Z,95.63
2018-05-27T05:31:23.490Z,95.63
2018-05-27T05:32:23.495Z,95.63
2018-05-27T05:33:23.496Z,95.63
2018-05-27T05:34:23.499Z,95.63
2018-05-27T05:35:23.504Z,95.63
2018-05-27T05:36:23.527Z,101.25
2018-05-27T05:37:23.507Z,101.25
2018-05-27T05:38:23.509Z,101.25
2018-05-27T05:39:23.513Z,101.25
2018-05-27T05:40:23.517Z,101.25
2018-05-27T05:41:23.518Z,101.25
2018-05-27T05:42:23.521Z,106.88
2018-05-27T05:43:23.524Z,106.88
2018-05-27T05:44:23.525Z,112.50
2018-05-27T05:45:23.530Z,101.25
2018-05-27T05:46:23.532Z,101.25
2018-05-27T05:47:23.535Z,101.25
2018-05-27T05:48:23.540Z,101.25
2018-05-27T05:49:23.617Z,106.88
2018-05-27T05:50:23.543Z,106.88
2018-05-27T05:51:23.548Z,106.88
2018-05-27T05:52:23.551Z,112.50
2018-05-27T05:53:23.552Z,118.13
2018-05-27T05:54:23.554Z,118.13
2018-05-27T05:55:23.560Z,112.50
2018-05-27T05:56:23.560Z,118.13
2018-05-27T05:57:23.563Z,118.13
2018-05-27T05:58:23.567Z,112.50
2018-05-27T05:59:23.569Z,106.88
2018-05-27T06:00:23.573Z,112.50
2018-05-27T06:01:23.576Z,118.13
2018-05-27T06:02:23.582Z,112.50
2018-05-27T06:03:23.581Z,123.75
2018-05-27T06:04:23.587Z,118.13
2018-05-27T06:05:23.588Z,112.50
2018-05-27T06:06:23.590Z,118.13
2018-05-27T06:07:23.595Z,129.38
2018-05-27T06:08:23.597Z,118.13
2018-05-27T06:09:23.601Z,123.75
2018-05-27T06:10:23.603Z,123.75
2018-05-27T06:11:23.607Z,129.38
2018-05-27T06:12:23.611Z,129.38
2018-05-27T06:13:23.615Z,123.75
2018-05-27T06:14:23.617Z,129.38
2018-05-27T06:15:23.620Z,129.38
2018-05-27T06:16:23.624Z,135.00
2018-05-27T06:17:23.628Z,135.00
2018-05-27T06:18:23.629Z,135.00
2018-05-27T06:19:23.635Z,135.00
2018-05-27T06:20:23.638Z,129.38
2018-05-27T06:21:23.648Z,135.00
2018-05-27T06:22:23.644Z,140.63
2018-05-27T06:23:23.648Z,146.25
2018-05-27T06:24:23.651Z,146.25
2018-05-27T06:25:23.655Z,151.88
2018-05-27T06:26:23.658Z,157.50
2018-05-27T06:27:23.663Z,157.50
2018-05-27T06:28:23.666Z,168.75
2018-05-27T06:29:23.671Z,168.75
2018-05-27T06:30:23.674Z,168.75
2018-05-27T06:31:23.679Z,168.75
2018-05-27T06:32:23.689Z,168.75
2018-05-27T06:33:23.685Z,168.75
2018-05-27T06:34:23.690Z,168.75
2018-05-27T06:35:23.694Z,163.13
2018-05-27T06:36:23.697Z,168.75
2018-05-27T06:37:23.703Z,168.75
2018-05-27T06:38:23.706Z,168.75
2018-05-27T06:39:23.710Z,168.75
2018-05-27T06:40:23.715Z,163.13
2018-05-27T06:41:23.718Z,157.50
2018-05-27T06:42:23.721Z,157.50
2018-05-27T06:43:23.726Z,163.13
2018-05-27T06:44:23.730Z,157.50
2018-05-27T06:45:23.737Z,157.50
2018-05-27T06:46:23.743Z,151.88
2018-05-27T06:47:23.745Z,151.88
2018-05-27T06:48:23.747Z,157.50
2018-05-27T06:49:23.753Z,157.50
2018-05-27T06:50:23.756Z,157.50
2018-05-27T06:51:23.763Z,157.50
2018-05-27T06:52:23.765Z,151.88
2018-05-27T06:53:23.769Z,151.88
2018-05-27T06:54:23.774Z,146.25
2018-05-27T06:55:23.780Z,146.25
2018-05-27T06:56:23.788Z,146.25
2018-05-27T06:57:23.787Z,140.63
2018-05-27T06:58:23.792Z,140.63
2018-05-27T06:59:23.797Z,140.63
2018-05-27T07:00:23.801Z,135.00
2018-05-27T07:01:23.807Z,135.00
2018-05-27T07:02:23.812Z,129.38
2018-05-27T07:03:23.814Z,129.38
2018-05-27T07:04:23.846Z,129.38
2018-05-27T07:05:23.823Z,129.38
2018-05-27T07:06:23.825Z,123.75
2018-05-27T07:07:23.831Z,129.38
2018-05-27T07:08:23.836Z,129.38
2018-05-27T07:09:23.841Z,129.38
2018-05-27T07:10:23.843Z,129.38
2018-05-27T07:11:23.848Z,129.38
2018-05-27T07:12:23.853Z,129.38
2018-05-27T07:13:23.858Z,129.38
2018-05-27T07:14:23.862Z,123.75
2018-05-27T07:15:23.867Z,123.75
2018-05-27T07:16:23.872Z,123.75
2018-05-27T07:17:23.877Z,123.75
2018-05-27T07:18:23.881Z,123.75
2018-05-27T07:19:23.886Z,123.75
2018-05-27T07:20:23.935Z,123.75
2018-05-27T07:21:23.894Z,129.38
2018-05-27T07:22:23.899Z,129.38
2018-05-27T07:23:23.902Z,129.38
2018-05-27T07:24:23.908Z,140.63
2018-05-27T07:25:23.913Z,140.63
2018-05-27T07:26:23.916Z,151.88
2018-05-27T07:27:23.922Z,157.50
2018-05-27T07:28:23.926Z,157.50
2018-05-27T07:29:23.930Z,157.50
2018-05-27T07:30:23.937Z,163.13
2018-05-27T07:31:23.939Z,168.75
2018-05-27T07:32:23.944Z,168.75
2018-05-27T07:33:23.949Z,174.38
2018-05-27T07:34:23.952Z,185.63
2018-05-27T07:35:23.965Z,191.25
2018-05-27T07:36:23.963Z,213.75
2018-05-27T07:37:23.967Z,264.38
2018-05-27T07:38:23.973Z,241.88
2018-05-27T07:39:23.978Z,219.38
2018-05-27T07:40:23.981Z,219.38
2018-05-27T07:41:23.992Z,230.63
2018-05-27T07:42:23.991Z,247.50
2018-05-27T07:43:23.997Z,247.50
2018-05-27T07:44:24.001Z,258.75
2018-05-27T07:45:24.007Z,270.00
2018-05-27T07:46:24.036Z,326.25
2018-05-27T07:47:24.017Z,348.75
2018-05-27T07:48:24.022Z,343.13
2018-05-27T07:49:24.027Z,382.50
2018-05-27T07:50:24.033Z,399.38
2018-05-27T07:51:24.038Z,461.25
2018-05-27T07:52:24.043Z,483.75
2018-05-27T07:53:24.048Z,489.38
2018-05-27T07:54:24.053Z,421.88
2018-05-27T07:55:24.061Z,382.50
2018-05-27T07:56:24.066Z,371.25
2018-05-27T07:57:24.072Z,416.25
2018-05-27T07:58:24.101Z,489.38
2018-05-27T07:59:24.082Z,545.63
2018-05-27T08:00:24.089Z,585.00
2018-05-27T08:01:24.093Z,641.25
2018-05-27T08:02:24.099Z,759.38
2018-05-27T08:03:24.106Z,838.13
2018-05-27T08:04:24.115Z,860.63
2018-05-27T08:05:24.119Z,905.63
2018-05-27T08:06:24.124Z,973.13
2018-05-27T08:07:24.132Z,995.63
2018-05-27T08:08:24.140Z,967.50
2018-05-27T08:09:24.147Z,911.25
2018-05-27T08:10:24.152Z,900.00
2018-05-27T08:11:24.160Z,1119.38
2018-05-27T08:12:24.168Z,1136.25
2018-05-27T08:13:24.178Z,1164.38
2018-05-27T08:14:24.185Z,1186.88
2018-05-27T08:15:24.193Z,1096.88
2018-05-27T08:16:24.202Z,1035.00
2018-05-27T08:17:24.214Z,950.63
2018-05-27T08:18:24.218Z,900.00
2018-05-27T08:19:24.226Z,928.13
2018-05-27T08:20:24.238Z,1023.75
2018-05-27T08:21:24.245Z,1080.00
2018-05-27T08:22:24.252Z,1080.00
2018-05-27T08:23:24.266Z,1018.13
2018-05-27T08:24:24.274Z,922.50
2018-05-27T08:25:24.280Z,871.88
2018-05-27T08:26:24.288Z,928.13
2018-05-27T08:27:24.298Z,995.63
2018-05-27T08:28:24.308Z,1074.38
2018-05-27T08:29:24.318Z,1102.50
2018-05-27T08:30:24.324Z,1153.13
2018-05-27T08:31:24.336Z,1192.50
2018-05-27T08:32:24.346Z,1119.38
2018-05-27T08:33:24.355Z,1108.13
2018-05-27T08:34:24.364Z,1057.50
2018-05-27T08:35:24.373Z,1119.38
2018-05-27T08:36:24.386Z,1074.38
2018-05-27T08:37:24.393Z,1046.25
2018-05-27T08:38:24.403Z,961.88
2018-05-27T08:39:24.412Z,922.50
2018-05-27T08:40:24.426Z,1035.00
2018-05-27T08:41:24.434Z,1108.13
2018-05-27T08:42:24.442Z,1164.38
2018-05-27T08:43:24.470Z,1136.25
2018-05-27T08:44:24.463Z,1186.88
2018-05-27T08:45:24.471Z,1254.38
2018-05-27T08:46:24.482Z,1215.00
2018-05-27T08:47:24.491Z,1153.13
2018-05-27T08:48:24.507Z,1293.75
2018-05-27T08:49:24.516Z,1378.13
2018-05-27T08:50:24.523Z,1361.25
2018-05-27T08:51:24.544Z,1271.25
2018-05-27T08:52:24.544Z,1333.13
2018-05-27T08:53:24.605Z,1366.88
2018-05-27T08:54:24.567Z,1378.13
2018-05-27T08:55:24.577Z,1350.00
2018-05-27T08:56:24.590Z,1299.38
2018-05-27T08:57:24.648Z,1271.25
2018-05-27T08:58:24.615Z,1226.25
2018-05-27T08:59:24.624Z,1203.75
2018-05-27T09:00:24.637Z,1192.50
2018-05-27T09:01:24.678Z,1175.63
2018-05-27T09:02:24.659Z,1153.13
2018-05-27T09:03:24.671Z,1209.38
2018-05-27T09:04:24.685Z,1181.25
2018-05-27T09:05:24.698Z,1147.50
2018-05-27T09:06:24.946Z,1130.63
2018-05-27T09:07:24.723Z,1158.75
2018-05-27T09:08:24.735Z,1164.38
2018-05-27T09:09:24.748Z,1175.63
2018-05-27T09:10:24.758Z,1102.50
2018-05-27T09:11:24.778Z,1018.13
2018-05-27T09:12:24.785Z,950.63
2018-05-27T09:13:24.798Z,916.88
2018-05-27T09:14:24.809Z,922.50
2018-05-27T09:15:24.908Z,911.25
2018-05-27T09:16:24.834Z,922.50
2018-05-27T09:17:24.847Z,888.75
2018-05-27T09:18:24.860Z,860.63
2018-05-27T09:19:24.869Z,855.00
2018-05-27T09:20:24.879Z,877.50
2018-05-27T09:21:24.891Z,922.50
2018-05-27T09:22:24.905Z,866.25
2018-05-27T09:23:24.914Z,871.88
2018-05-27T09:24:24.925Z,911.25
2018-05-27T09:25:24.937Z,922.50
2018-05-27T09:26:24.951Z,871.88
2018-05-27T09:27:24.960Z,900.00
2018-05-27T09:28:24.972Z,883.13
2018-05-27T09:29:24.985Z,978.75
2018-05-27T09:30:24.998Z,1001.25
2018-05-27T09:31:25.006Z,956.25
2018-05-27T09:32:25.019Z,832.50
2018-05-27T09:33:25.031Z,703.13
2018-05-27T09:34:25.043Z,568.13
2018-05-27T09:35:25.055Z,556.88
2018-05-27T09:36:25.067Z,601.88
2018-05-27T09:37:25.078Z,646.88
2018-05-27T09:38:25.091Z,568.13
2018-05-27T09:39:25.104Z,506.25
2018-05-27T09:40:25.114Z,523.13
2018-05-27T09:41:25.125Z,562.50
2018-05-27T09:42:25.136Z,562.50
2018-05-27T09:43:25.148Z,500.63
2018-05-27T09:44:25.158Z,528.75
2018-05-27T09:45:25.265Z,478.13
2018-05-27T09:46:25.180Z,438.75
2018-05-27T09:47:25.195Z,421.88
2018-05-27T09:48:25.202Z,365.63
2018-05-27T09:49:25.215Z,320.63
2018-05-27T09:50:25.223Z,303.75
2018-05-27T09:51:25.287Z,286.88
2018-05-27T09:52:25.245Z,315.00
2018-05-27T09:53:25.253Z,309.38
2018-05-27T09:54:25.263Z,298.13
2018-05-27T09:55:25.272Z,309.38
2018-05-27T09:56:25.283Z,298.13
2018-05-27T09:57:25.292Z,286.88
2018-05-27T09:58:25.301Z,286.88
2018-05-27T09:59:25.324Z,270.00
2018-05-27T10:00:25.321Z,270.00
2018-05-27T10:01:25.329Z,264.38
2018-05-27T10:02:25.338Z,275.63
2018-05-27T10:03:25.349Z,270.00
2018-05-27T10:04:25.355Z,264.38
2018-05-27T10:05:25.366Z,258.75
2018-05-27T10:06:25.376Z,270.00
2018-05-27T10:07:25.384Z,315.00
2018-05-27T10:08:25.389Z,315.00
2018-05-27T10:09:25.399Z,348.75
2018-05-27T10:10:25.407Z,354.38
2018-05-27T10:11:25.414Z,298.13
2018-05-27T10:12:25.424Z,281.25
2018-05-27T10:13:25.432Z,270.00
2018-05-27T10:14:25.440Z,270.00
2018-05-27T10:15:25.450Z,275.63
2018-05-27T10:16:25.458Z,281.25
2018-05-27T10:17:25.466Z,281.25
2018-05-27T10:18:25.475Z,281.25
2018-05-27T10:19:25.521Z,258.75
2018-05-27T10:20:25.490Z,247.50
2018-05-27T10:21:26.649Z,253.13
2018-05-27T10:22:25.507Z,241.88
2018-05-27T10:23:25.515Z,236.25
2018-05-27T10:24:25.527Z,241.88
2018-05-27T10:25:25.532Z,253.13
2018-05-27T10:26:25.540Z,258.75
2018-05-27T10:27:25.550Z,270.00
2018-05-27T10:28:25.557Z,275.63
2018-05-27T10:29:25.565Z,275.63
2018-05-27T10:30:25.572Z,298.13
2018-05-27T10:31:25.585Z,298.13
2018-05-27T10:32:25.590Z,298.13
2018-05-27T10:33:25.598Z,303.75
2018-05-27T10:34:25.605Z,298.13
2018-05-27T10:35:25.615Z,286.88
2018-05-27T10:36:25.622Z,281.25
2018-05-27T10:37:25.633Z,275.63
2018-05-27T10:38:25.638Z,275.63
2018-05-27T10:39:25.649Z,286.88
2018-05-27T10:40:25.657Z,309.38
2018-05-27T10:41:25.680Z,331.88
2018-05-27T10:42:25.671Z,348.75
2018-05-27T10:43:25.681Z,337.50
2018-05-27T10:44:25.695Z,343.13
2018-05-27T10:45:25.698Z,354.38
2018-05-27T10:46:25.708Z,360.00
2018-05-27T10:47:25.722Z,371.25
2018-05-27T10:48:25.723Z,354.38
2018-05-27T10:49:25.733Z,315.00
2018-05-27T10:50:25.741Z,275.63
2018-05-27T10:51:25.749Z,236.25
2018-05-27T10:52:25.759Z,202.50
2018-05-27T10:53:25.766Z,180.00
2018-05-27T10:54:25.777Z,163.13
2018-05-27T10:55:25.784Z,146.25
2018-05-27T10:56:25.791Z,140.63
2018-05-27T10:57:25.799Z,135.00
2018-05-27T10:58:25.808Z,129.38
2018-05-27T10:59:25.816Z,129.38
2018-05-27T11:00:25.823Z,129.38
2018-05-27T11:01:25.831Z,129.38
2018-05-27T11:02:25.840Z,129.38
2018-05-27T11:03:25.850Z,129.38
2018-05-27T11:04:25.855Z,129.38
2018-05-27T11:05:25.864Z,129.38
2018-05-27T11:06:25.869Z,129.38
2018-05-27T11:07:25.878Z,123.75
2018-05-27T11:08:25.886Z,123.75
2018-05-27T11:09:25.895Z,123.75
2018-05-27T11:10:25.900Z,123.75
2018-05-27T11:11:25.908Z,129.38
2018-05-27T11:12:25.914Z,123.75
2018-05-27T11:13:25.933Z,123.75
2018-05-27T11:14:25.931Z,123.75
2018-05-27T11:15:25.938Z,123.75
2018-05-27T11:16:25.945Z,123.75
2018-05-27T11:17:25.952Z,123.75
2018-05-27T11:18:25.960Z,129.38
2018-05-27T11:19:25.966Z,129.38
2018-05-27T11:20:25.976Z,129.38
2018-05-27T11:21:25.980Z,135.00
2018-05-27T11:22:25.989Z,135.00
2018-05-27T11:23:25.999Z,135.00
2018-05-27T11:24:26.002Z,135.00
2018-05-27T11:25:26.010Z,135.00
2018-05-27T11:26:26.016Z,140.63
2018-05-27T11:27:26.024Z,140.63
2018-05-27T11:28:26.029Z,146.25
2018-05-27T11:29:26.044Z,146.25
2018-05-27T11:30:26.047Z,151.88
2018-05-27T11:31:26.052Z,151.88
2018-05-27T11:32:26.060Z,157.50
2018-05-27T11:33:26.066Z,157.50
2018-05-27T11:34:26.076Z,157.50
2018-05-27T11:35:26.079Z,163.13
2018-05-27T11:36:26.085Z,163.13
2018-05-27T11:37:26.093Z,168.75
2018-05-27T11:38:26.100Z,168.75
2018-05-27T11:39:26.106Z,174.38
2018-05-27T11:40:26.114Z,185.63
2018-05-27T11:41:26.122Z,196.88
2018-05-27T11:42:26.159Z,202.50
2018-05-27T11:43:26.135Z,219.38
2018-05-27T11:44:26.144Z,292.50
2018-05-27T11:45:26.151Z,331.88
2018-05-27T11:46:26.158Z,348.75
2018-05-27T11:47:26.167Z,354.38
2018-05-27T11:48:26.173Z,376.88
2018-05-27T11:49:26.181Z,371.25
2018-05-27T11:50:26.312Z,382.50
2018-05-27T11:51:26.198Z,388.13
2018-05-27T11:52:26.206Z,410.63
2018-05-27T11:53:26.216Z,399.38
2018-05-27T11:54:26.224Z,399.38
2018-05-27T11:55:26.233Z,393.75
2018-05-27T11:56:26.243Z,388.13
2018-05-27T11:57:26.252Z,382.50
2018-05-27T11:58:26.261Z,376.88
2018-05-27T11:59:26.272Z,371.25
2018-05-27T12:00:26.282Z,371.25
2018-05-27T12:01:26.293Z,360.00
2018-05-27T12:03:26.314Z,348.75
2018-05-27T12:04:26.648Z,354.38
2018-05-27T12:05:26.634Z,348.75
2018-05-27T12:06:26.345Z,354.38
2018-05-27T12:07:26.356Z,354.38
2018-05-27T12:08:26.367Z,354.38
2018-05-27T12:09:26.467Z,348.75
2018-05-27T12:10:26.390Z,354.38
2018-05-27T12:11:26.400Z,365.63
2018-05-27T12:12:26.412Z,360.00
2018-05-27T12:13:26.423Z,360.00
2018-05-27T12:14:26.460Z,360.00
2018-05-27T12:15:26.445Z,348.75
2018-05-27T12:16:26.457Z,331.88
2018-05-27T12:17:26.469Z,337.50
2018-05-27T12:18:26.479Z,326.25
2018-05-27T12:19:26.492Z,331.88
2018-05-27T12:20:26.502Z,331.88
2018-05-27T12:21:26.515Z,337.50
2018-05-27T12:22:26.526Z,331.88
2018-05-27T12:23:26.536Z,354.38
2018-05-27T12:24:26.547Z,348.75
2018-05-27T12:25:26.559Z,331.88
2018-05-27T12:26:26.569Z,315.00
2018-05-27T12:27:26.579Z,191.25
2018-05-27T12:28:26.591Z,168.75
2018-05-27T12:29:26.605Z,168.75
2018-05-27T12:30:26.612Z,191.25
2018-05-27T12:31:26.624Z,140.63
2018-05-27T12:32:26.634Z,112.50
2018-05-27T12:33:26.647Z,101.25
2018-05-27T12:34:26.654Z,95.63
2018-05-27T12:35:26.665Z,95.63
2018-05-27T12:36:26.675Z,90.00
2018-05-27T12:37:26.686Z,90.00
2018-05-27T12:38:26.694Z,90.00
2018-05-27T12:39:26.704Z,90.00
2018-05-27T12:40:26.715Z,90.00
2018-05-27T12:41:26.724Z,84.38
2018-05-27T12:42:26.733Z,84.38
2018-05-27T12:43:26.741Z,84.38
2018-05-27T12:44:26.817Z,84.38
2018-05-27T12:45:26.758Z,78.75
2018-05-27T12:46:26.766Z,78.75